Moskow/Vnukovo International Airport

Airport
ICAO code: 
UUWW
IATA Code: 
VKO
Summary
ICAO Region: 
EUR
Territory: 
Location: 
Vnukovo, Moscow Oblast,
Serving: 
Moscow
Elevation: 
686 ft
Coordinates: 
Aerial View: 
55° 35' 39.782" N, 37° 15' 49.04" E
Metar
Observation
UUWW 020730Z 20003MPS 9999 -SN BKN034 M06/M09 Q0999 R24/410250 NOSIG
Station
Moscow / Vnukovo
Date/Time
2021-12-02 07:30:00
Wind direction
200°
Lowest cloud amount
broken clouds
Temperature
-6°C
Dew point
-9°C
Humidity
79%
QNH
999 hPa
Weather condition
light snow

Description

Vnukovo International Airport, is an international airport located 28 km southwest from the centre of Moscow, Russia.

Climatology

Humid Continental climate (Köppen climate classification Dfb) - Variable weather patterns and a large seasonal temperature variance. Summers are often warm and humid with frequent thunderstorms and winters can be very cold with frequent snowfall and persistent snow cover.

Runways

Designator Length Width Surface Rops
6/24 3000 60 ASP Yes/Yes
2/20 3060 60 ASP Yes/Yes
Airport map: 
Aerial View: 

Accidents and Serious Incidents at or in the vicinity of UUWW

SKYbrary Partners:

Safety knowledge contributed by: